createdAt,value
2023-04-10T00:01:16.440Z,100.00
2023-04-10T00:03:46.310Z,100.00
2023-04-10T00:06:15.334Z,100.00
2023-04-10T00:08:44.163Z,100.00
2023-04-10T00:11:14.517Z,100.00
2023-04-10T00:13:43.623Z,100.00
2023-04-10T00:16:12.849Z,100.00
2023-04-10T00:18:41.635Z,100.00
2023-04-10T00:21:18.961Z,100.00
2023-04-10T00:23:47.598Z,100.00
2023-04-10T00:26:18.241Z,100.00
2023-04-10T00:28:47.100Z,100.00
2023-04-10T00:31:15.748Z,100.00
2023-04-10T00:33:44.352Z,100.00
2023-04-10T00:36:13.177Z,100.00
2023-04-10T00:38:41.948Z,100.00
2023-04-10T00:41:11.138Z,100.00
2023-04-10T00:43:40.917Z,100.00
2023-04-10T00:46:10.243Z,100.00
2023-04-10T00:48:39.801Z,100.00
2023-04-10T00:51:08.731Z,100.00
2023-04-10T00:53:37.749Z,100.00
2023-04-10T00:56:07.325Z,100.00
2023-04-10T00:58:36.313Z,100.00
2023-04-10T01:01:06.698Z,100.00
2023-04-10T01:03:35.598Z,100.00
2023-04-10T01:06:09.487Z,100.00
2023-04-10T01:08:43.161Z,100.00
2023-04-10T01:11:15.869Z,100.00
2023-04-10T01:13:49.124Z,100.00
2023-04-10T01:16:22.260Z,100.00
2023-04-10T01:18:56.108Z,100.00
2023-04-10T01:21:25.313Z,100.00
2023-04-10T01:24:02.067Z,100.00
2023-04-10T01:26:48.069Z,100.00
2023-04-10T01:29:20.999Z,100.00
2023-04-10T01:32:00.134Z,100.00
2023-04-10T01:34:34.724Z,100.00
2023-04-10T01:37:06.229Z,100.00
2023-04-10T01:39:37.840Z,100.00
2023-04-10T01:42:08.537Z,100.00
2023-04-10T01:44:39.894Z,100.00
2023-04-10T01:47:09.011Z,100.00
2023-04-10T01:49:42.714Z,100.00
2023-04-10T01:52:11.817Z,100.00
2023-04-10T01:54:40.693Z,100.00
2023-04-10T01:57:10.716Z,100.00
2023-04-10T01:59:40.805Z,100.00
2023-04-10T02:02:11.962Z,100.00
2023-04-10T02:04:40.807Z,100.00
2023-04-10T02:07:13.290Z,100.00
2023-04-10T02:09:49.681Z,100.00
2023-04-10T02:12:22.193Z,100.00
2023-04-10T02:14:53.101Z,100.00
2023-04-10T02:17:27.680Z,100.00
2023-04-10T02:19:56.355Z,100.00
2023-04-10T02:22:26.029Z,100.00
2023-04-10T02:24:55.191Z,100.00
2023-04-10T02:27:31.763Z,100.00
2023-04-10T02:30:03.481Z,100.00
2023-04-10T02:32:33.211Z,100.00
2023-04-10T02:35:02.188Z,100.00
2023-04-10T02:37:31.441Z,100.00
2023-04-10T02:40:00.055Z,100.00
2023-04-10T02:42:28.984Z,100.00
2023-04-10T02:44:57.687Z,100.00
2023-04-10T02:47:28.171Z,100.00
2023-04-10T02:49:57.322Z,100.00
2023-04-10T02:52:26.017Z,100.00
2023-04-10T02:54:54.636Z,100.00
2023-04-10T02:57:24.054Z,100.00
2023-04-10T02:59:52.786Z,100.00
2023-04-10T03:02:21.983Z,100.00
2023-04-10T03:04:53.863Z,100.00
2023-04-10T03:07:22.594Z,100.00
2023-04-10T03:09:51.708Z,100.00
2023-04-10T03:12:20.683Z,100.00
2023-04-10T03:14:49.510Z,100.00
2023-04-10T03:17:18.448Z,100.00
2023-04-10T03:19:47.478Z,100.00
2023-04-10T03:22:17.358Z,100.00
2023-04-10T03:24:45.995Z,100.00
2023-04-10T03:27:14.901Z,100.00
2023-04-10T03:29:45.575Z,100.00
2023-04-10T03:32:15.495Z,100.00
2023-04-10T03:34:44.027Z,100.00
2023-04-10T03:37:12.503Z,100.00
2023-04-10T03:39:43.315Z,100.00
2023-04-10T03:42:11.774Z,100.00
2023-04-10T03:44:41.424Z,100.00
2023-04-10T03:47:09.895Z,100.00
2023-04-10T03:49:38.916Z,100.00
2023-04-10T03:52:07.774Z,100.00
2023-04-10T03:54:36.538Z,100.00
2023-04-10T03:57:06.836Z,100.00
2023-04-10T03:59:38.948Z,100.00
2023-04-10T04:02:08.442Z,100.00
2023-04-10T04:04:37.108Z,100.00
2023-04-10T04:07:05.779Z,100.00
2023-04-10T04:09:34.205Z,100.00
2023-04-10T04:12:02.764Z,100.00
2023-04-10T04:14:32.450Z,100.00
2023-04-10T04:17:01.052Z,100.00
2023-04-10T04:19:30.063Z,100.00
2023-04-10T04:22:00.611Z,100.00
2023-04-10T04:24:29.504Z,100.00
2023-04-10T04:26:58.067Z,100.00
2023-04-10T04:29:26.966Z,100.00
2023-04-10T04:31:57.430Z,100.00
2023-04-10T04:34:26.353Z,100.00
2023-04-10T04:36:55.323Z,100.00
2023-04-10T04:39:25.901Z,100.00
2023-04-10T04:41:54.217Z,100.00
2023-04-10T04:44:22.557Z,100.00
2023-04-10T04:46:51.307Z,100.00
2023-04-10T04:49:21.650Z,100.00
2023-04-10T04:51:50.490Z,100.00
2023-04-10T04:54:19.743Z,100.00
2023-04-10T04:56:48.373Z,100.00
2023-04-10T04:59:16.911Z,100.00
2023-04-10T05:01:47.522Z,100.00
2023-04-10T05:04:17.301Z,100.00
2023-04-10T05:06:47.519Z,100.00
2023-04-10T05:09:16.042Z,100.00
2023-04-10T05:11:44.868Z,100.00
2023-04-10T05:14:13.745Z,100.00
2023-04-10T05:16:48.200Z,100.00
2023-04-10T05:19:16.670Z,100.00
2023-04-10T05:21:46.467Z,100.00
2023-04-10T05:24:15.281Z,100.00
2023-04-10T05:26:44.229Z,100.00
2023-04-10T05:29:12.716Z,100.00
2023-04-10T05:31:42.959Z,100.00
2023-04-10T05:34:11.349Z,100.00
2023-04-10T05:36:39.995Z,100.00
2023-04-10T05:39:11.095Z,100.00
2023-04-10T05:41:39.721Z,100.00
2023-04-10T05:44:08.452Z,100.00
2023-04-10T05:46:37.157Z,100.00
2023-04-10T05:49:07.346Z,100.00
2023-04-10T05:51:36.241Z,100.00
2023-04-10T05:54:05.084Z,100.00
2023-04-10T05:56:35.609Z,100.00
2023-04-10T05:59:04.638Z,100.00
2023-04-10T06:01:33.231Z,100.00
2023-04-10T06:04:02.529Z,100.00
2023-04-10T06:06:31.142Z,100.00
2023-04-10T06:08:59.603Z,100.00
2023-04-10T06:11:28.217Z,100.00
2023-04-10T06:13:58.178Z,100.00
2023-04-10T06:16:27.162Z,100.00
2023-04-10T06:18:56.212Z,100.00
2023-04-10T06:21:25.249Z,100.00
2023-04-10T06:23:54.201Z,100.00
2023-04-10T06:26:23.103Z,100.00
2023-04-10T06:28:56.725Z,100.00
2023-04-10T06:31:29.748Z,100.00
2023-04-10T06:33:58.885Z,100.00
2023-04-10T06:36:28.049Z,100.00
2023-04-10T06:38:56.754Z,100.00
2023-04-10T06:41:25.402Z,100.00
2023-04-10T06:43:54.300Z,100.00
2023-04-10T06:46:23.345Z,100.00
2023-04-10T06:48:54.100Z,100.00
2023-04-10T06:51:22.875Z,100.00
2023-04-10T06:53:51.477Z,100.00
2023-04-10T06:56:20.003Z,100.00
2023-04-10T06:58:48.720Z,100.00
2023-04-10T07:01:17.975Z,100.00
2023-04-10T07:03:46.776Z,100.00
2023-04-10T07:06:16.758Z,100.00
2023-04-10T07:08:45.686Z,100.00
2023-04-10T07:11:14.236Z,100.00
2023-04-10T07:13:42.575Z,100.00
2023-04-10T07:16:12.852Z,100.00
2023-04-10T07:18:41.557Z,100.00
2023-04-10T07:21:14.805Z,100.00
2023-04-10T07:23:45.007Z,100.00
2023-04-10T07:26:13.748Z,100.00
2023-04-10T07:28:42.391Z,100.00
2023-04-10T07:31:11.369Z,100.00
2023-04-10T07:33:41.223Z,100.00
2023-04-10T07:36:11.066Z,100.00
2023-04-10T07:38:40.288Z,100.00
2023-04-10T07:41:12.424Z,100.00
2023-04-10T07:43:43.764Z,100.00
2023-04-10T07:46:12.300Z,100.00
2023-04-10T07:48:41.424Z,100.00
2023-04-10T07:51:10.798Z,100.00
2023-04-10T07:53:40.048Z,100.00
2023-04-10T07:56:17.091Z,100.00
2023-04-10T07:58:46.397Z,100.00
2023-04-10T08:01:15.892Z,100.00
2023-04-10T08:03:45.992Z,100.00
2023-04-10T08:06:15.118Z,100.00
2023-04-10T08:08:44.466Z,100.00
2023-04-10T08:11:26.945Z,100.00
2023-04-10T08:13:58.695Z,100.00
2023-04-10T08:16:28.280Z,100.00
2023-04-10T08:18:58.118Z,100.00
2023-04-10T08:21:47.581Z,99.69
2023-04-10T08:24:16.224Z,98.41
2023-04-10T08:26:46.172Z,97.44
2023-04-10T08:29:14.946Z,98.13
2023-04-10T08:31:44.073Z,96.67
2023-04-10T08:34:13.021Z,94.59
2023-04-10T08:36:41.854Z,94.69
2023-04-10T08:39:10.845Z,93.41
2023-04-10T08:41:43.197Z,93.39
2023-04-10T08:44:15.546Z,94.03
2023-04-10T08:46:45.218Z,92.04
2023-04-10T08:49:19.888Z,90.80
2023-04-10T08:51:55.139Z,89.94
2023-04-10T08:54:34.206Z,91.61
2023-04-10T08:57:03.563Z,89.47
2023-04-10T08:59:34.139Z,88.47
2023-04-10T09:02:03.101Z,87.45
2023-04-10T09:04:32.538Z,87.58
2023-04-10T09:07:01.866Z,88.16
2023-04-10T09:09:32.771Z,87.57
2023-04-10T09:12:03.841Z,84.89
2023-04-10T09:14:35.371Z,83.73
2023-04-10T09:17:28.050Z,82.24
2023-04-10T09:19:57.704Z,82.79
2023-04-10T09:22:31.505Z,82.19
2023-04-10T09:25:01.230Z,82.96
2023-04-10T09:27:32.759Z,82.25
2023-04-10T09:30:04.043Z,80.67
2023-04-10T09:32:39.384Z,78.03
2023-04-10T09:35:08.908Z,76.84
2023-04-10T09:37:38.577Z,78.94
2023-04-10T09:40:08.811Z,78.38
2023-04-10T09:42:38.323Z,80.66
2023-04-10T09:45:08.687Z,79.64
2023-04-10T09:47:37.976Z,80.43
2023-04-10T09:50:07.325Z,78.66
2023-04-10T09:52:38.522Z,67.02
2023-04-10T09:55:08.994Z,59.80
2023-04-10T09:57:37.935Z,60.25
2023-04-10T10:00:09.717Z,57.55
2023-04-10T10:02:39.541Z,59.14
2023-04-10T10:05:08.473Z,61.14
2023-04-10T10:07:37.423Z,64.75
2023-04-10T10:10:10.250Z,61.51
2023-04-10T10:12:45.095Z,55.33
2023-04-10T10:15:22.671Z,49.47
2023-04-10T10:17:57.102Z,46.35
2023-04-10T10:20:28.464Z,44.42
2023-04-10T10:22:57.763Z,44.91
2023-04-10T10:25:26.590Z,50.01
2023-04-10T10:27:55.579Z,54.66
2023-04-10T10:30:30.210Z,56.34
2023-04-10T10:33:00.956Z,54.52
2023-04-10T10:35:30.208Z,55.99
2023-04-10T10:38:00.710Z,55.99
2023-04-10T10:40:33.389Z,56.58
2023-04-10T10:43:13.445Z,60.94
2023-04-10T10:45:51.922Z,60.77
2023-04-10T10:48:20.884Z,59.07
2023-04-10T10:50:57.608Z,59.26
2023-04-10T10:53:40.649Z,60.33
2023-04-10T10:56:37.205Z,61.02
2023-04-10T10:59:05.868Z,63.60
2023-04-10T11:01:36.085Z,65.63
2023-04-10T11:04:46.156Z,67.45
2023-04-10T11:07:15.313Z,66.38
2023-04-10T11:09:48.782Z,65.98
2023-04-10T11:12:17.903Z,64.28
2023-04-10T11:14:58.294Z,65.17
2023-04-10T11:17:51.648Z,66.28
2023-04-10T11:20:25.990Z,64.96
2023-04-10T11:23:15.493Z,65.98
2023-04-10T11:25:54.109Z,69.11
2023-04-10T11:28:40.696Z,68.47
2023-04-10T11:31:18.782Z,65.96
2023-04-10T11:33:49.592Z,64.13
2023-04-10T11:36:19.107Z,64.02
2023-04-10T11:38:58.372Z,64.50
2023-04-10T11:41:34.433Z,63.78
2023-04-10T11:44:04.668Z,65.92
2023-04-10T11:46:36.634Z,63.92
2023-04-10T11:49:09.238Z,64.44
2023-04-10T11:51:40.616Z,67.04
2023-04-10T11:54:10.371Z,67.46
2023-04-10T11:56:44.364Z,66.74
2023-04-10T11:59:14.690Z,68.39
2023-04-10T12:01:43.778Z,66.17
2023-04-10T12:04:17.863Z,66.84
2023-04-10T12:06:47.580Z,61.68
2023-04-10T12:09:17.697Z,64.84
2023-04-10T12:11:53.158Z,65.18
2023-04-10T12:14:22.524Z,64.25
2023-04-10T12:16:51.952Z,64.33
2023-04-10T12:19:23.762Z,66.17
2023-04-10T12:21:52.642Z,65.28
2023-04-10T12:24:43.234Z,66.41
2023-04-10T12:27:18.356Z,67.07
2023-04-10T12:29:47.310Z,65.20
2023-04-10T12:32:16.429Z,65.83
2023-04-10T12:34:52.010Z,66.25
2023-04-10T12:37:21.027Z,65.82
2023-04-10T12:39:50.095Z,64.60
2023-04-10T12:42:21.169Z,64.21
2023-04-10T12:44:54.388Z,64.46
2023-04-10T12:47:23.653Z,64.74
2023-04-10T12:50:07.190Z,64.31
2023-04-10T12:52:38.290Z,64.00
2023-04-10T12:55:12.532Z,64.63
2023-04-10T12:57:42.101Z,64.09
2023-04-10T13:00:12.141Z,64.55
2023-04-10T13:02:41.433Z,64.03
2023-04-10T13:05:12.930Z,63.75
2023-04-10T13:07:42.971Z,64.67
2023-04-10T13:10:12.560Z,64.97
2023-04-10T13:12:42.291Z,65.54
2023-04-10T13:15:12.351Z,63.85
2023-04-10T13:17:42.031Z,62.92
2023-04-10T13:20:13.588Z,64.06
2023-04-10T13:22:42.601Z,64.12
2023-04-10T13:25:11.563Z,65.22
2023-04-10T13:27:40.586Z,63.05
2023-04-10T13:30:15.339Z,63.41
2023-04-10T13:32:44.533Z,63.06
2023-04-10T13:35:14.950Z,63.25
2023-04-10T13:37:46.886Z,62.43
2023-04-10T13:40:18.334Z,62.71
2023-04-10T13:42:47.014Z,61.71
2023-04-10T13:45:15.976Z,62.25
2023-04-10T13:47:45.505Z,61.78
2023-04-10T13:50:15.917Z,62.65
2023-04-10T13:52:44.815Z,60.30
2023-04-10T13:55:13.695Z,59.76
2023-04-10T13:57:43.253Z,58.35
2023-04-10T14:00:14.335Z,57.41
2023-04-10T14:02:42.955Z,56.84
2023-04-10T14:05:13.603Z,56.03
2023-04-10T14:07:43.988Z,56.48
2023-04-10T14:10:12.923Z,55.91
2023-04-10T14:12:42.011Z,55.73
2023-04-10T14:15:11.517Z,51.52
2023-04-10T14:17:40.692Z,51.79
2023-04-10T14:20:11.731Z,51.57
2023-04-10T14:22:42.350Z,51.68
2023-04-10T14:25:16.360Z,50.50
2023-04-10T14:27:45.802Z,50.72
2023-04-10T14:30:15.174Z,50.09
2023-04-10T14:32:44.532Z,50.24
2023-04-10T14:35:14.100Z,52.14
2023-04-10T14:37:42.578Z,52.57
2023-04-10T14:40:13.520Z,53.86
2023-04-10T14:42:42.371Z,53.00
2023-04-10T14:45:18.365Z,53.45
2023-04-10T14:47:47.729Z,53.74
2023-04-10T14:50:16.685Z,53.81
2023-04-10T14:52:45.380Z,54.71
2023-04-10T14:55:15.778Z,54.43
2023-04-10T14:57:44.519Z,54.93
2023-04-10T15:00:14.510Z,55.78
2023-04-10T15:02:43.393Z,55.75
2023-04-10T15:05:12.813Z,55.66
2023-04-10T15:07:41.973Z,56.67
2023-04-10T15:10:11.943Z,56.53
2023-04-10T15:12:42.770Z,56.96
2023-04-10T15:15:12.552Z,57.80
2023-04-10T15:17:48.766Z,58.39
2023-04-10T15:20:20.768Z,58.54
2023-04-10T15:22:49.571Z,57.63
2023-04-10T15:25:18.678Z,56.46
2023-04-10T15:27:51.751Z,54.84
2023-04-10T15:30:20.221Z,54.01
2023-04-10T15:32:48.719Z,53.57
2023-04-10T15:35:17.857Z,51.46
2023-04-10T15:37:46.699Z,52.19
2023-04-10T15:40:15.566Z,50.94
2023-04-10T15:42:44.511Z,49.07
2023-04-10T15:45:14.592Z,50.29
2023-04-10T15:47:43.548Z,49.88
2023-04-10T15:50:12.452Z,47.96
2023-04-10T15:52:41.412Z,47.13
2023-04-10T15:55:12.176Z,48.44
2023-04-10T15:57:41.175Z,48.10
2023-04-10T16:00:10.757Z,47.74
2023-04-10T16:02:43.887Z,46.74
2023-04-10T16:05:12.964Z,45.49
2023-04-10T16:07:43.990Z,44.51
2023-04-10T16:10:13.105Z,44.82
2023-04-10T16:12:42.743Z,45.00
2023-04-10T16:15:12.644Z,44.20
2023-04-10T16:17:41.336Z,45.44
2023-04-10T16:20:12.828Z,46.31
2023-04-10T16:22:43.857Z,47.36
2023-04-10T16:25:12.854Z,46.68
2023-04-10T16:27:41.512Z,46.16
2023-04-10T16:30:14.012Z,47.56
2023-04-10T16:32:42.726Z,49.74
2023-04-10T16:35:12.970Z,49.27
2023-04-10T16:37:41.603Z,48.81
2023-04-10T16:40:12.754Z,49.60
2023-04-10T16:42:43.047Z,52.05
2023-04-10T16:45:12.989Z,55.18
2023-04-10T16:47:44.404Z,57.85
2023-04-10T16:50:15.023Z,61.31
2023-04-10T16:52:43.899Z,64.70
2023-04-10T16:55:13.004Z,68.90
2023-04-10T16:57:44.789Z,69.83
2023-04-10T17:00:14.931Z,72.07
2023-04-10T17:02:44.332Z,75.21
2023-04-10T17:05:14.511Z,77.63
2023-04-10T17:07:44.584Z,80.28
2023-04-10T17:10:14.229Z,81.02
2023-04-10T17:12:43.923Z,82.04
2023-04-10T17:15:13.859Z,82.94
2023-04-10T17:17:44.694Z,84.19
2023-04-10T17:20:15.435Z,85.24
2023-04-10T17:22:44.505Z,85.13
2023-04-10T17:25:13.666Z,85.93
2023-04-10T17:27:42.772Z,86.26
2023-04-10T17:30:14.019Z,86.62
2023-04-10T17:32:43.789Z,86.61
2023-04-10T17:35:12.489Z,87.71
2023-04-10T17:37:43.094Z,88.70
2023-04-10T17:40:14.219Z,89.50
2023-04-10T17:42:42.971Z,91.38
2023-04-10T17:45:12.907Z,92.46
2023-04-10T17:47:42.400Z,92.36
2023-04-10T17:50:11.690Z,93.36
2023-04-10T17:52:46.283Z,94.41
2023-04-10T17:55:20.534Z,94.88
2023-04-10T17:57:50.203Z,95.41
2023-04-10T18:00:20.794Z,96.19
2023-04-10T18:02:49.830Z,96.04
2023-04-10T18:05:18.927Z,95.91
2023-04-10T18:07:48.916Z,96.20
2023-04-10T18:10:17.929Z,96.37
2023-04-10T18:12:46.455Z,96.71
2023-04-10T18:15:15.936Z,96.36
2023-04-10T18:17:44.744Z,96.20
2023-04-10T18:20:13.673Z,96.62
2023-04-10T18:22:43.132Z,97.35
2023-04-10T18:25:13.604Z,97.46
2023-04-10T18:27:48.032Z,98.56
2023-04-10T18:30:20.761Z,98.77
2023-04-10T18:32:52.454Z,99.84
2023-04-10T18:35:21.630Z,99.68
2023-04-10T18:37:50.742Z,99.05
2023-04-10T18:40:24.365Z,99.18
2023-04-10T18:42:53.483Z,99.23
2023-04-10T18:45:23.066Z,100.00
2023-04-10T18:47:54.158Z,100.00
2023-04-10T18:50:22.895Z,100.00
2023-04-10T18:52:51.614Z,100.00
2023-04-10T18:55:22.240Z,100.00
2023-04-10T18:57:50.964Z,100.00
2023-04-10T19:00:19.673Z,100.00
2023-04-10T19:02:48.423Z,100.00
2023-04-10T19:05:17.971Z,100.00
2023-04-10T19:08:00.511Z,100.00
2023-04-10T19:10:33.371Z,100.00
2023-04-10T19:13:02.818Z,100.00
2023-04-10T19:15:34.347Z,100.00
2023-04-10T19:18:06.136Z,100.00
2023-04-10T19:20:50.553Z,100.00
2023-04-10T19:23:21.342Z,100.00
2023-04-10T19:25:55.004Z,100.00
2023-04-10T19:28:25.928Z,100.00
2023-04-10T19:30:57.906Z,100.00
2023-04-10T19:33:26.688Z,100.00
2023-04-10T19:35:55.968Z,100.00
2023-04-10T19:38:24.810Z,100.00
2023-04-10T19:40:55.177Z,100.00
2023-04-10T19:43:23.965Z,100.00
2023-04-10T19:45:54.835Z,100.00
2023-04-10T19:48:23.756Z,100.00
2023-04-10T19:50:52.872Z,100.00
2023-04-10T19:53:21.270Z,100.00
2023-04-10T19:55:50.144Z,100.00
2023-04-10T19:58:38.930Z,100.00
2023-04-10T20:01:09.719Z,100.00
2023-04-10T20:03:39.068Z,100.00
2023-04-10T20:06:10.678Z,100.00
2023-04-10T20:08:42.220Z,100.00
2023-04-10T20:11:11.164Z,100.00
2023-04-10T20:13:41.707Z,100.00
2023-04-10T20:16:13.532Z,100.00
2023-04-10T20:18:45.190Z,100.00
2023-04-10T20:21:13.904Z,100.00
2023-04-10T20:23:42.753Z,100.00
2023-04-10T20:26:13.172Z,100.00
2023-04-10T20:28:42.903Z,100.00
2023-04-10T20:31:12.243Z,100.00
2023-04-10T20:33:41.108Z,100.00
2023-04-10T20:36:14.390Z,100.00
2023-04-10T20:38:43.909Z,100.00
2023-04-10T20:41:12.747Z,100.00
2023-04-10T20:43:43.015Z,100.00
2023-04-10T20:46:11.666Z,100.00
2023-04-10T20:48:40.369Z,100.00
2023-04-10T20:51:10.471Z,100.00
2023-04-10T20:53:39.017Z,100.00
2023-04-10T20:56:07.990Z,100.00
2023-04-10T20:58:36.465Z,100.00
2023-04-10T21:01:09.572Z,100.00
2023-04-10T21:03:39.834Z,100.00
2023-04-10T21:06:09.949Z,100.00
2023-04-10T21:09:03.515Z,100.00
2023-04-10T21:11:32.445Z,100.00
2023-04-10T21:14:01.368Z,100.00
2023-04-10T21:16:31.874Z,100.00
2023-04-10T21:19:00.811Z,100.00
2023-04-10T21:21:33.150Z,100.00
2023-04-10T21:24:01.772Z,100.00
2023-04-10T21:26:30.764Z,100.00
2023-04-10T21:28:59.829Z,100.00
2023-04-10T21:31:28.851Z,100.00
2023-04-10T21:33:59.127Z,100.00
2023-04-10T21:36:27.846Z,100.00
2023-04-10T21:38:57.938Z,100.00
2023-04-10T21:41:27.309Z,100.00
2023-04-10T21:44:00.519Z,100.00
2023-04-10T21:46:29.694Z,100.00
2023-04-10T21:49:00.077Z,100.00
2023-04-10T21:51:29.309Z,100.00
2023-04-10T21:53:58.506Z,100.00
2023-04-10T21:56:27.441Z,100.00
2023-04-10T21:58:57.256Z,100.00
2023-04-10T22:01:26.185Z,100.00
2023-04-10T22:03:55.270Z,100.00
2023-04-10T22:06:28.480Z,100.00
2023-04-10T22:08:57.559Z,100.00
2023-04-10T22:11:26.309Z,100.00
2023-04-10T22:13:58.051Z,100.00
2023-04-10T22:16:27.253Z,100.00
2023-04-10T22:18:56.565Z,100.00
2023-04-10T22:21:25.483Z,100.00
2023-04-10T22:23:55.581Z,100.00
2023-04-10T22:26:24.956Z,100.00
2023-04-10T22:28:54.128Z,100.00
2023-04-10T22:31:23.844Z,100.00
2023-04-10T22:33:52.551Z,100.00
2023-04-10T22:36:22.659Z,100.00
2023-04-10T22:38:51.366Z,100.00
2023-04-10T22:41:21.804Z,100.00
2023-04-10T22:43:50.592Z,100.00
2023-04-10T22:46:19.243Z,100.00
2023-04-10T22:48:47.809Z,100.00
2023-04-10T22:51:16.886Z,100.00
2023-04-10T22:53:45.528Z,100.00
2023-04-10T22:56:15.428Z,100.00
2023-04-10T22:58:45.459Z,100.00
2023-04-10T23:01:14.078Z,100.00
2023-04-10T23:03:42.806Z,100.00
2023-04-10T23:06:11.748Z,100.00
2023-04-10T23:08:40.658Z,100.00
2023-04-10T23:11:09.319Z,100.00
2023-04-10T23:13:37.934Z,100.00
2023-04-10T23:16:09.102Z,100.00
2023-04-10T23:18:38.072Z,100.00
2023-04-10T23:21:07.928Z,100.00
2023-04-10T23:23:36.394Z,100.00
2023-04-10T23:26:05.204Z,100.00
2023-04-10T23:28:33.824Z,100.00
2023-04-10T23:31:02.860Z,100.00
2023-04-10T23:33:33.175Z,100.00
2023-04-10T23:36:01.957Z,100.00
2023-04-10T23:38:30.768Z,100.00
2023-04-10T23:40:59.837Z,100.00
2023-04-10T23:43:28.728Z,100.00
2023-04-10T23:45:57.771Z,100.00
2023-04-10T23:48:26.722Z,100.00
2023-04-10T23:51:05.954Z,100.00
2023-04-10T23:53:34.949Z,100.00
2023-04-10T23:56:08.597Z,100.00
2023-04-10T23:58:37.465Z,100.00
